createdAt,value
2019-02-26T00:00:32.555Z,3.40
2019-02-26T00:03:02.842Z,3.40
2019-02-26T00:22:59.786Z,3.10
2019-02-26T00:30:27.612Z,3.00
2019-02-26T00:32:58.260Z,3.10
2019-02-26T00:37:56.693Z,3.10
2019-02-26T00:40:25.485Z,3.10
2019-02-26T00:50:22.937Z,3.00
2019-02-26T00:52:52.357Z,3.00
2019-02-26T00:55:25.229Z,3.00
2019-02-26T00:57:56.789Z,3.00
2019-02-26T01:00:24.683Z,2.90
2019-02-26T01:07:52.572Z,2.90
2019-02-26T01:20:19.333Z,2.80
2019-02-26T01:25:19.321Z,2.70
2019-02-26T01:27:48.260Z,2.70
2019-02-26T01:32:47.522Z,2.70
2019-02-26T01:35:16.436Z,2.70
2019-02-26T01:37:45.476Z,2.70
2019-02-26T01:47:45.566Z,2.70
2019-02-26T01:53:02.756Z,2.60
2019-02-26T01:57:59.937Z,2.50
2019-02-26T02:05:28.231Z,2.50
2019-02-26T02:10:24.990Z,2.60
2019-02-26T02:15:24.056Z,2.50
2019-02-26T02:17:54.859Z,2.40
2019-02-26T02:20:23.412Z,2.40
2019-02-26T02:22:52.229Z,2.40
2019-02-26T02:25:21.004Z,2.30
2019-02-26T02:27:52.013Z,2.30
2019-02-26T02:30:26.638Z,2.30
2019-02-26T02:35:20.977Z,2.40
2019-02-26T02:50:18.311Z,2.30
2019-02-26T02:52:47.599Z,2.30
2019-02-26T02:55:19.307Z,2.20
2019-02-26T02:57:49.364Z,2.20
2019-02-26T03:02:49.420Z,2.20
2019-02-26T03:05:16.630Z,2.20
2019-02-26T03:07:48.741Z,2.20
2019-02-26T03:17:43.063Z,2.10
2019-02-26T03:20:12.004Z,2.10
2019-02-26T03:22:43.143Z,2.10
2019-02-26T03:25:14.328Z,2.10
2019-02-26T03:30:20.547Z,2.10
2019-02-26T03:32:50.560Z,2.10
2019-02-26T03:35:19.736Z,2.00
2019-02-26T03:37:48.808Z,2.00
2019-02-26T03:45:15.473Z,1.90
2019-02-26T03:50:14.169Z,1.80
2019-02-26T03:52:43.296Z,1.80
2019-02-26T03:55:15.458Z,1.70
2019-02-26T03:57:46.993Z,1.70
2019-02-26T04:02:47.715Z,1.70
2019-02-26T04:07:43.516Z,1.70
2019-02-26T04:12:42.344Z,1.70
2019-02-26T04:15:13.245Z,1.70
2019-02-26T04:17:42.333Z,1.70
2019-02-26T04:20:11.712Z,1.60
2019-02-26T04:22:43.161Z,1.60
2019-02-26T04:25:31.371Z,1.60
2019-02-26T04:28:20.793Z,1.70
2019-02-26T04:31:28.945Z,1.60
2019-02-26T04:37:12.906Z,1.70
2019-02-26T04:50:09.160Z,1.50
2019-02-26T04:52:40.667Z,1.50
2019-02-26T04:55:08.872Z,1.60
2019-02-26T04:57:39.646Z,1.50
2019-02-26T05:02:38.411Z,1.50
2019-02-26T05:05:07.397Z,1.50
2019-02-26T05:17:33.409Z,1.40
2019-02-26T05:20:04.274Z,1.40
2019-02-26T05:22:33.412Z,1.50
2019-02-26T05:25:07.473Z,1.50
2019-02-26T05:27:36.370Z,1.50
2019-02-26T05:32:36.675Z,1.50
2019-02-26T05:35:05.628Z,1.60
2019-02-26T05:47:33.435Z,1.60
2019-02-26T05:50:03.855Z,1.50
2019-02-26T05:55:02.873Z,1.50
2019-02-26T05:57:32.756Z,1.50
2019-02-26T06:00:01.700Z,1.50
2019-02-26T06:02:30.542Z,1.50
2019-02-26T06:04:59.321Z,1.50
2019-02-26T06:19:57.244Z,1.40
2019-02-26T06:22:29.084Z,1.50
2019-02-26T06:24:59.688Z,1.50
2019-02-26T06:27:28.168Z,1.50
2019-02-26T06:29:58.155Z,1.50
2019-02-26T06:32:30.309Z,1.50
2019-02-26T06:39:55.667Z,1.60
2019-02-26T06:44:53.506Z,1.70
2019-02-26T06:57:20.160Z,2.00
2019-02-26T07:04:47.549Z,2.10
2019-02-26T07:07:16.425Z,2.10
2019-02-26T07:09:45.281Z,2.10
2019-02-26T07:19:41.201Z,2.30
2019-02-26T07:22:11.606Z,2.40
2019-02-26T07:24:41.767Z,2.40
2019-02-26T07:27:12.109Z,2.50
2019-02-26T07:29:44.367Z,2.50
2019-02-26T07:32:14.612Z,2.60
2019-02-26T07:34:45.276Z,2.60
2019-02-26T07:47:13.497Z,2.80
2019-02-26T07:49:42.455Z,2.80
2019-02-26T07:52:11.397Z,3.00
2019-02-26T07:54:42.225Z,3.10
2019-02-26T07:57:10.768Z,3.20
2019-02-26T07:59:42.151Z,3.30
2019-02-26T08:02:11.317Z,3.30
2019-02-26T08:04:41.851Z,3.50
2019-02-26T08:07:11.841Z,3.90
2019-02-26T08:12:11.274Z,4.80
2019-02-26T08:17:09.761Z,5.30
2019-02-26T08:19:39.814Z,5.40
2019-02-26T08:22:09.239Z,5.50
2019-02-26T08:24:38.149Z,5.70
2019-02-26T08:32:05.428Z,6.20
2019-02-26T08:34:34.301Z,6.40
2019-02-26T08:37:03.240Z,6.60
2019-02-26T08:42:18.714Z,6.90
2019-02-26T08:44:48.751Z,6.90
2019-02-26T08:49:48.060Z,7.00
2019-02-26T08:52:17.487Z,6.90
2019-02-26T08:54:47.457Z,6.90
2019-02-26T08:57:16.247Z,7.10
2019-02-26T08:59:47.167Z,7.30
2019-02-26T09:02:15.569Z,7.40
2019-02-26T09:04:45.158Z,7.40
2019-02-26T09:09:47.155Z,7.90
2019-02-26T09:14:47.568Z,8.40
2019-02-26T09:19:46.045Z,8.60
2019-02-26T09:22:18.797Z,8.80
2019-02-26T09:24:46.865Z,8.90
2019-02-26T09:27:15.877Z,9.00
2019-02-26T09:32:16.550Z,9.10
2019-02-26T09:34:45.593Z,9.10
2019-02-26T09:37:14.374Z,9.20
2019-02-26T09:42:11.506Z,9.30
2019-02-26T09:47:09.222Z,9.40
2019-02-26T09:49:38.022Z,9.40
2019-02-26T09:52:06.809Z,9.30
2019-02-26T09:57:05.872Z,9.40
2019-02-26T09:59:35.964Z,9.60
2019-02-26T10:02:06.095Z,9.60
2019-02-26T10:04:35.168Z,9.80
2019-02-26T10:17:04.833Z,10.30
2019-02-26T10:22:08.986Z,10.50
2019-02-26T10:24:35.286Z,10.50
2019-02-26T10:27:06.023Z,10.50
2019-02-26T10:29:37.371Z,10.70
2019-02-26T10:32:06.052Z,10.80
2019-02-26T10:34:34.900Z,10.90
2019-02-26T10:37:03.687Z,11.00
2019-02-26T10:39:32.562Z,11.10
2019-02-26T10:42:02.577Z,11.20
2019-02-26T10:47:01.249Z,11.40
2019-02-26T10:49:30.409Z,11.50
2019-02-26T10:51:59.264Z,11.60
2019-02-26T10:54:30.910Z,11.60
2019-02-26T10:57:00.353Z,11.70
2019-02-26T10:59:29.167Z,11.70
2019-02-26T11:02:00.423Z,11.80
2019-02-26T11:04:34.845Z,11.80
2019-02-26T11:07:01.304Z,11.90
2019-02-26T11:19:33.254Z,12.30
2019-02-26T11:26:59.526Z,12.50
2019-02-26T11:29:30.400Z,12.60
2019-02-26T11:32:01.503Z,12.70
2019-02-26T11:44:28.148Z,13.20
2019-02-26T11:46:57.032Z,13.30
2019-02-26T11:54:22.470Z,13.40
2019-02-26T11:56:52.524Z,13.50
2019-02-26T11:59:21.607Z,13.60
2019-02-26T12:01:50.780Z,13.80
2019-02-26T12:04:19.641Z,13.90
2019-02-26T12:06:48.449Z,14.10
2019-02-26T12:09:17.239Z,14.20
2019-02-26T12:14:16.943Z,14.40
2019-02-26T12:16:45.189Z,14.50
2019-02-26T12:24:12.555Z,14.70
2019-02-26T12:26:42.773Z,14.80
2019-02-26T12:29:12.166Z,14.90
2019-02-26T12:31:41.274Z,15.00
2019-02-26T12:34:11.828Z,15.10
2019-02-26T12:36:40.884Z,15.10
2019-02-26T12:49:09.404Z,15.40
2019-02-26T12:51:37.625Z,15.80
2019-02-26T12:54:09.309Z,15.80
2019-02-26T12:56:37.471Z,15.80
2019-02-26T12:59:07.609Z,16.20
2019-02-26T13:01:39.508Z,16.20
2019-02-26T13:04:09.621Z,16.30
2019-02-26T13:09:07.852Z,16.30
2019-02-26T13:11:36.648Z,16.30
2019-02-26T13:14:05.537Z,16.30
2019-02-26T13:16:34.592Z,16.40
2019-02-26T13:19:04.643Z,16.30
2019-02-26T13:24:11.448Z,16.30
2019-02-26T13:29:03.687Z,16.30
2019-02-26T13:31:35.878Z,16.20
2019-02-26T13:34:03.017Z,16.30
2019-02-26T13:36:36.097Z,16.40
2019-02-26T13:39:02.430Z,16.50
2019-02-26T13:41:38.684Z,16.50
2019-02-26T13:44:02.244Z,16.40
2019-02-26T13:46:31.220Z,16.30
2019-02-26T13:49:00.099Z,16.30
2019-02-26T13:51:30.349Z,16.30
2019-02-26T13:56:27.440Z,16.50
2019-02-26T14:01:24.869Z,16.70
2019-02-26T14:03:53.700Z,16.70
2019-02-26T14:06:22.530Z,16.60
2019-02-26T14:13:48.333Z,16.70
2019-02-26T14:16:17.109Z,16.80
2019-02-26T14:18:48.165Z,17.00
2019-02-26T14:21:17.016Z,17.00
2019-02-26T14:23:45.836Z,17.00
2019-02-26T14:26:14.631Z,16.90
2019-02-26T14:28:43.506Z,16.90
2019-02-26T14:31:12.445Z,16.70
2019-02-26T14:33:41.240Z,17.00
2019-02-26T14:38:38.436Z,16.80
2019-02-26T14:41:07.301Z,16.70
2019-02-26T14:46:04.645Z,16.70
2019-02-26T14:48:33.652Z,16.70
2019-02-26T14:51:02.462Z,16.80
2019-02-26T14:53:31.308Z,16.90
2019-02-26T14:56:00.065Z,17.00
2019-02-26T14:58:28.908Z,17.20
2019-02-26T15:01:00.273Z,17.20
2019-02-26T15:03:28.489Z,17.20
2019-02-26T15:05:57.280Z,17.10
2019-02-26T15:08:26.345Z,17.10
2019-02-26T15:10:55.117Z,17.10
2019-02-26T15:20:50.711Z,16.70
2019-02-26T15:23:19.650Z,16.70
2019-02-26T15:25:48.424Z,16.70
2019-02-26T15:28:20.181Z,16.60
2019-02-26T15:30:48.972Z,16.60
2019-02-26T15:33:17.720Z,16.60
2019-02-26T15:35:46.964Z,16.40
2019-02-26T15:43:12.445Z,16.30
2019-02-26T15:45:41.219Z,16.30
2019-02-26T15:50:40.272Z,16.10
2019-02-26T15:53:08.829Z,15.90
2019-02-26T15:55:37.604Z,15.80
2019-02-26T15:58:06.932Z,15.70
2019-02-26T16:00:37.968Z,15.60
2019-02-26T16:03:06.615Z,15.40
2019-02-26T16:05:35.397Z,15.30
2019-02-26T16:08:04.447Z,15.20
2019-02-26T16:13:04.797Z,15.00
2019-02-26T16:15:34.682Z,14.70
2019-02-26T16:18:03.551Z,14.50
2019-02-26T16:20:33.209Z,14.30
2019-02-26T16:23:02.136Z,14.20
2019-02-26T16:27:59.379Z,14.00
2019-02-26T16:30:28.324Z,13.90
2019-02-26T16:32:57.428Z,13.70
2019-02-26T16:35:26.280Z,13.60
2019-02-26T16:37:55.040Z,13.40
2019-02-26T16:50:19.996Z,12.70
2019-02-26T16:52:48.860Z,12.60
2019-02-26T16:55:17.800Z,12.50
2019-02-26T16:57:46.849Z,12.50
2019-02-26T17:00:17.581Z,12.30
2019-02-26T17:02:46.508Z,12.20
2019-02-26T17:05:15.428Z,12.00
2019-02-26T17:07:44.208Z,11.90
2019-02-26T17:10:15.089Z,11.80
2019-02-26T17:20:13.436Z,11.30
2019-02-26T17:22:42.552Z,11.30
2019-02-26T17:25:11.484Z,11.20
2019-02-26T17:27:40.389Z,11.00
2019-02-26T17:30:10.308Z,11.00
2019-02-26T17:37:36.611Z,10.60
2019-02-26T17:40:06.611Z,10.60
2019-02-26T17:42:35.401Z,10.50
2019-02-26T17:47:39.783Z,10.30
2019-02-26T17:55:09.501Z,10.00
2019-02-26T17:57:38.980Z,9.90
2019-02-26T18:00:10.338Z,9.80
2019-02-26T18:02:39.216Z,9.70
2019-02-26T18:07:38.556Z,9.50
2019-02-26T18:10:12.739Z,9.50
2019-02-26T18:12:39.985Z,9.40
2019-02-26T18:17:38.830Z,9.30
2019-02-26T18:20:10.553Z,9.10
2019-02-26T18:22:39.357Z,9.10
2019-02-26T18:25:09.248Z,9.00
2019-02-26T18:27:38.092Z,9.00
2019-02-26T18:30:08.572Z,9.00
2019-02-26T18:32:37.344Z,8.90
2019-02-26T18:37:34.584Z,8.80
2019-02-26T18:40:03.452Z,8.80
2019-02-26T18:45:00.550Z,8.60
2019-02-26T18:47:29.382Z,8.60
2019-02-26T18:49:58.413Z,8.60
2019-02-26T18:52:27.267Z,8.50
2019-02-26T18:54:56.061Z,8.40
2019-02-26T18:57:24.962Z,8.30
2019-02-26T18:59:54.203Z,8.30
2019-02-26T19:02:23.065Z,8.20
2019-02-26T19:07:20.232Z,8.20
2019-02-26T19:09:49.028Z,8.10
2019-02-26T19:12:18.601Z,8.00
2019-02-26T19:14:47.708Z,8.00
2019-02-26T19:19:44.816Z,7.90
2019-02-26T19:22:13.656Z,7.80
2019-02-26T19:24:42.444Z,7.70
2019-02-26T19:27:11.240Z,7.70
2019-02-26T19:29:40.036Z,7.60
2019-02-26T19:32:08.805Z,7.50
2019-02-26T19:37:06.240Z,7.40
2019-02-26T19:39:35.012Z,7.30
2019-02-26T19:44:35.736Z,7.20
2019-02-26T19:51:59.876Z,7.20
2019-02-26T19:54:28.715Z,7.20
2019-02-26T19:56:57.760Z,7.20
2019-02-26T20:01:56.668Z,7.00
2019-02-26T20:04:27.123Z,6.90
2019-02-26T20:09:26.020Z,7.00
2019-02-26T20:11:56.201Z,6.90
2019-02-26T20:14:25.457Z,6.80
2019-02-26T20:16:54.306Z,6.70
2019-02-26T20:19:23.084Z,6.70
2019-02-26T20:21:52.234Z,6.70
2019-02-26T20:24:21.133Z,6.60
2019-02-26T20:26:50.490Z,6.60
2019-02-26T20:34:16.016Z,6.60
2019-02-26T20:36:44.805Z,6.50
2019-02-26T20:46:39.522Z,6.50
2019-02-26T20:51:38.363Z,6.40
2019-02-26T20:56:36.110Z,6.30
2019-02-26T20:59:05.193Z,6.30
2019-02-26T21:01:34.000Z,6.30
2019-02-26T21:04:02.768Z,6.20
2019-02-26T21:13:56.601Z,6.00
2019-02-26T21:18:53.738Z,6.00
2019-02-26T21:23:50.885Z,5.90
2019-02-26T21:26:20.235Z,5.80
2019-02-26T21:28:49.044Z,5.80
2019-02-26T21:31:19.084Z,5.70
2019-02-26T21:38:45.087Z,5.60
2019-02-26T21:46:10.534Z,5.50
2019-02-26T21:51:08.622Z,5.50
2019-02-26T21:53:37.409Z,5.50
2019-02-26T21:56:06.440Z,5.40
2019-02-26T21:58:35.244Z,5.40
2019-02-26T22:01:04.085Z,5.40
2019-02-26T22:06:05.237Z,5.30
2019-02-26T22:08:31.988Z,5.30
2019-02-26T22:13:29.853Z,5.30
2019-02-26T22:15:58.789Z,5.30
2019-02-26T22:18:30.904Z,5.30
2019-02-26T22:20:58.090Z,5.20
2019-02-26T22:25:55.458Z,5.10
2019-02-26T22:28:25.876Z,5.00
2019-02-26T22:30:55.924Z,5.00
2019-02-26T22:33:25.215Z,5.00
2019-02-26T22:38:22.325Z,5.00
2019-02-26T22:40:51.117Z,4.90
2019-02-26T22:43:19.912Z,4.80
2019-02-26T22:45:48.721Z,4.70
2019-02-26T22:50:45.856Z,4.80
2019-02-26T22:53:14.719Z,4.80
2019-02-26T22:55:43.513Z,4.80
2019-02-26T23:03:27.948Z,4.60
2019-02-26T23:05:59.049Z,4.60
2019-02-26T23:08:29.457Z,4.50
2019-02-26T23:15:57.936Z,4.50
2019-02-26T23:20:56.996Z,4.40
2019-02-26T23:23:26.241Z,4.40
2019-02-26T23:25:55.114Z,4.30
2019-02-26T23:28:23.995Z,4.30
2019-02-26T23:30:52.944Z,4.30
2019-02-26T23:33:21.821Z,4.30
2019-02-26T23:35:54.855Z,4.20
2019-02-26T23:43:18.796Z,4.20
2019-02-26T23:48:16.389Z,4.20
2019-02-26T23:50:47.296Z,4.20
2019-02-26T23:55:47.246Z,4.10
2019-02-26T23:58:16.905Z,4.10
